createdAt,value
2022-12-11T00:02:05.201Z,95043.09
2022-12-11T00:04:32.411Z,95030.47
2022-12-11T00:06:59.161Z,95022.09
2022-12-11T00:09:25.734Z,95024.59
2022-12-11T00:11:52.693Z,95003.72
2022-12-11T00:14:19.461Z,95006.66
2022-12-11T00:16:48.247Z,95004.84
2022-12-11T00:19:15.647Z,94984.75
2022-12-11T00:21:42.478Z,94975.16
2022-12-11T00:24:09.067Z,94972.56
2022-12-11T00:26:35.934Z,94977.81
2022-12-11T00:29:02.766Z,94974.53
2022-12-11T00:31:29.501Z,94980.16
2022-12-11T00:33:56.683Z,94989.53
2022-12-11T00:36:25.750Z,94964.78
2022-12-11T00:38:53.099Z,94967.25
2022-12-11T00:41:20.481Z,94960.03
2022-12-11T00:43:47.484Z,94951.00
2022-12-11T00:46:14.470Z,94951.06
2022-12-11T00:48:41.370Z,94942.53
2022-12-11T00:51:08.125Z,94941.34
2022-12-11T00:53:34.777Z,94936.19
2022-12-11T00:56:01.814Z,94927.09
2022-12-11T00:58:28.568Z,94925.34
2022-12-11T01:00:55.282Z,94926.66
2022-12-11T01:03:22.135Z,94905.41
2022-12-11T01:05:54.063Z,94899.44
2022-12-11T01:08:21.177Z,94894.88
2022-12-11T01:10:48.298Z,94897.75
2022-12-11T01:13:15.662Z,94894.00
2022-12-11T01:15:44.928Z,94892.94
2022-12-11T01:18:14.102Z,94891.44
2022-12-11T01:20:42.653Z,94889.53
2022-12-11T01:23:12.511Z,94881.81
2022-12-11T01:25:39.802Z,94872.09
2022-12-11T01:28:07.561Z,94861.63
2022-12-11T01:30:34.697Z,94860.00
2022-12-11T01:33:01.534Z,94852.25
2022-12-11T01:35:28.299Z,94850.22
2022-12-11T01:37:55.574Z,94852.66
2022-12-11T01:40:23.308Z,94845.66
2022-12-11T01:42:50.391Z,94828.97
2022-12-11T01:45:29.415Z,94826.69
2022-12-11T01:47:59.551Z,94823.56
2022-12-11T01:50:26.526Z,94820.84
2022-12-11T01:52:53.730Z,94816.53
2022-12-11T01:55:21.735Z,94810.63
2022-12-11T01:57:51.187Z,94799.41
2022-12-11T02:00:19.033Z,94817.25
2022-12-11T02:02:45.785Z,94804.41
2022-12-11T02:05:12.981Z,94803.25
2022-12-11T02:07:47.129Z,94800.53
2022-12-11T02:10:14.338Z,94792.41
2022-12-11T02:12:57.844Z,94792.47
2022-12-11T02:15:27.704Z,94797.13
2022-12-11T02:18:16.440Z,94785.41
2022-12-11T02:20:45.858Z,94784.97
2022-12-11T02:23:15.043Z,94783.34
2022-12-11T02:26:18.913Z,94785.19
2022-12-11T02:28:58.892Z,94782.75
2022-12-11T02:31:40.137Z,94783.47
2022-12-11T02:34:16.047Z,94784.50
2022-12-11T02:36:47.114Z,94773.09
2022-12-11T02:39:16.779Z,94780.00
2022-12-11T02:41:50.476Z,94773.72
2022-12-11T02:44:21.690Z,94766.28
2022-12-11T02:46:49.433Z,94757.66
2022-12-11T02:49:17.971Z,94757.28
2022-12-11T02:51:44.634Z,94756.50
2022-12-11T02:54:17.006Z,94749.09
2022-12-11T02:56:48.107Z,94746.81
2022-12-11T02:59:30.689Z,94741.72
2022-12-11T03:01:57.870Z,94735.44
2022-12-11T03:04:25.042Z,94731.50
2022-12-11T03:06:56.472Z,94731.44
2022-12-11T03:09:23.571Z,94702.72
2022-12-11T03:11:50.148Z,94737.22
2022-12-11T03:14:16.745Z,94735.22
2022-12-11T03:16:55.872Z,94723.97
2022-12-11T03:19:47.797Z,94733.66
2022-12-11T03:22:41.203Z,94736.69
2022-12-11T03:25:15.588Z,94738.91
2022-12-11T03:27:56.201Z,94740.91
2022-12-11T03:30:24.744Z,94729.00
2022-12-11T03:32:54.259Z,94742.03
2022-12-11T03:35:33.674Z,94733.47
2022-12-11T03:38:07.741Z,94734.59
2022-12-11T03:40:37.290Z,94736.53
2022-12-11T03:43:05.007Z,94731.44
2022-12-11T03:45:33.977Z,94727.16
2022-12-11T03:48:03.126Z,94700.78
2022-12-11T03:50:32.618Z,94706.47
2022-12-11T03:53:01.924Z,94708.31
2022-12-11T03:55:31.224Z,94712.50
2022-12-11T03:57:58.035Z,94700.44
2022-12-11T04:00:24.869Z,94702.38
2022-12-11T04:03:13.599Z,94684.03
2022-12-11T04:05:42.963Z,94682.47
2022-12-11T04:08:09.994Z,94698.34
2022-12-11T04:10:37.019Z,94687.44
2022-12-11T04:13:03.860Z,94682.38
2022-12-11T04:15:30.582Z,94676.09
2022-12-11T04:18:15.888Z,94669.13
2022-12-11T04:21:01.268Z,94672.16
2022-12-11T04:23:46.575Z,94662.03
2022-12-11T04:26:16.415Z,94668.31
2022-12-11T04:28:45.005Z,94672.63
2022-12-11T04:31:14.492Z,94661.78
2022-12-11T04:33:41.656Z,94661.78
2022-12-11T04:36:09.522Z,94654.69
2022-12-11T04:38:36.994Z,94657.47
2022-12-11T04:41:06.786Z,94643.88
2022-12-11T04:43:33.789Z,94643.44
2022-12-11T04:46:06.316Z,94647.31
2022-12-11T04:48:33.390Z,94643.69
2022-12-11T04:51:00.158Z,94635.84
2022-12-11T04:53:28.398Z,94634.63
2022-12-11T04:55:55.369Z,94633.06
2022-12-11T04:58:23.254Z,94635.00
2022-12-11T05:00:50.053Z,94633.06
2022-12-11T05:03:16.789Z,94628.34
2022-12-11T05:05:53.833Z,94628.34
2022-12-11T05:08:21.570Z,94624.06
2022-12-11T05:11:03.257Z,94631.41
2022-12-11T05:13:30.362Z,94626.34
2022-12-11T05:15:58.123Z,94607.50
2022-12-11T05:18:25.486Z,94615.88
2022-12-11T05:21:00.803Z,94613.53
2022-12-11T05:23:28.149Z,94619.19
2022-12-11T05:25:56.366Z,94609.50
2022-12-11T05:28:25.078Z,94615.19
2022-12-11T05:31:04.306Z,94611.69
2022-12-11T05:33:31.902Z,94618.31
2022-12-11T05:35:58.776Z,94631.84
2022-12-11T05:38:25.788Z,94614.84
2022-12-11T05:41:00.545Z,94609.34
2022-12-11T05:43:29.082Z,94601.50
2022-12-11T05:45:56.123Z,94616.13
2022-12-11T05:48:23.070Z,94611.44
2022-12-11T05:51:00.972Z,94604.91
2022-12-11T05:53:28.911Z,94630.13
2022-12-11T05:55:55.774Z,94621.56
2022-12-11T05:58:22.553Z,94605.06
2022-12-11T06:00:49.325Z,94618.50
2022-12-11T06:03:16.017Z,94600.72
2022-12-11T06:05:43.531Z,94622.00
2022-12-11T06:08:10.316Z,94622.78
2022-12-11T06:10:37.387Z,94611.19
2022-12-11T06:13:04.389Z,94625.94
2022-12-11T06:15:31.023Z,94632.22
2022-12-11T06:17:57.574Z,94645.84
2022-12-11T06:20:24.315Z,94640.06
2022-12-11T06:22:51.118Z,94635.44
2022-12-11T06:25:17.932Z,94642.06
2022-12-11T06:27:44.756Z,94653.56
2022-12-11T06:30:11.865Z,94664.22
2022-12-11T06:32:38.491Z,94660.88
2022-12-11T06:35:05.928Z,94669.44
2022-12-11T06:37:32.507Z,94675.38
2022-12-11T06:39:59.366Z,94688.22
2022-12-11T06:42:26.265Z,94708.03
2022-12-11T06:44:52.865Z,94704.72
2022-12-11T06:47:19.997Z,94713.38
2022-12-11T06:49:46.786Z,94713.44
2022-12-11T06:52:18.188Z,94745.34
2022-12-11T06:54:45.175Z,94754.25
2022-12-11T06:57:12.200Z,94783.97
2022-12-11T06:59:38.952Z,94790.56
2022-12-11T07:02:05.750Z,94792.03
2022-12-11T07:04:32.790Z,94786.53
2022-12-11T07:06:59.739Z,94793.88
2022-12-11T07:09:26.320Z,94807.50
2022-12-11T07:11:53.637Z,94793.75
2022-12-11T07:14:21.255Z,94801.31
2022-12-11T07:16:47.982Z,94814.06
2022-12-11T07:19:15.029Z,94822.53
2022-12-11T07:21:41.736Z,94823.31
2022-12-11T07:24:08.906Z,94830.31
2022-12-11T07:26:36.048Z,94826.38
2022-12-11T07:29:03.073Z,94834.59
2022-12-11T07:31:30.652Z,94844.66
2022-12-11T07:34:00.672Z,94843.50
2022-12-11T07:36:28.226Z,94851.72
2022-12-11T07:38:54.834Z,94860.31
2022-12-11T07:41:22.526Z,94868.53
2022-12-11T07:43:49.758Z,94865.03
2022-12-11T07:46:19.964Z,94869.41
2022-12-11T07:48:48.525Z,94880.66
2022-12-11T07:51:27.844Z,94881.09
2022-12-11T07:54:03.741Z,94878.03
2022-12-11T07:56:31.990Z,94877.25
2022-12-11T07:59:03.794Z,94879.19
2022-12-11T08:01:32.571Z,94892.72
2022-12-11T08:03:59.353Z,94889.94
2022-12-11T08:06:31.377Z,94908.63
2022-12-11T08:08:59.731Z,94909.00
2022-12-11T08:11:26.953Z,94910.13
2022-12-11T08:13:54.545Z,94924.81
2022-12-11T08:16:21.802Z,94925.16
2022-12-11T08:18:49.188Z,94931.63
2022-12-11T08:21:18.641Z,94936.19
2022-12-11T08:23:46.579Z,94960.03
2022-12-11T08:26:18.860Z,94989.28
2022-12-11T08:28:45.650Z,94992.91
2022-12-11T08:31:14.920Z,94985.41
2022-12-11T08:33:42.450Z,94991.72
2022-12-11T08:36:12.418Z,94989.94
2022-12-11T08:38:39.332Z,95011.63
2022-12-11T08:41:13.387Z,95022.34
2022-12-11T08:43:40.157Z,95005.00
2022-12-11T08:46:07.540Z,95022.03
2022-12-11T08:48:35.433Z,95033.69
2022-12-11T08:51:04.683Z,95037.19
2022-12-11T08:53:32.165Z,95034.53
2022-12-11T08:56:04.063Z,95052.00
2022-12-11T08:58:30.692Z,95038.13
2022-12-11T09:00:57.719Z,95069.56
2022-12-11T09:03:25.286Z,95085.56
2022-12-11T09:05:51.922Z,95093.19
2022-12-11T09:08:18.704Z,95099.84
2022-12-11T09:10:47.371Z,95111.38
2022-12-11T09:13:13.992Z,95123.97
2022-12-11T09:15:41.987Z,95116.06
2022-12-11T09:18:09.073Z,95131.28
2022-12-11T09:20:35.724Z,95130.59
2022-12-11T09:23:02.907Z,95116.69
2022-12-11T09:25:29.582Z,95116.78
2022-12-11T09:27:56.163Z,95127.19
2022-12-11T09:30:22.884Z,95117.88
2022-12-11T09:32:49.588Z,95112.88
2022-12-11T09:35:16.226Z,95118.34
2022-12-11T09:37:47.378Z,95112.31
2022-12-11T09:40:15.135Z,95113.31
2022-12-11T09:43:09.387Z,95127.78
2022-12-11T09:45:36.277Z,95121.28
2022-12-11T09:48:03.054Z,95103.53
2022-12-11T09:50:34.665Z,95114.31
2022-12-11T09:53:21.914Z,95110.69
2022-12-11T09:55:51.505Z,95112.81
2022-12-11T09:58:21.157Z,95117.09
2022-12-11T10:00:53.510Z,95118.56
2022-12-11T10:03:51.762Z,95121.31
2022-12-11T10:06:25.496Z,95135.63
2022-12-11T10:09:33.728Z,95130.72
2022-12-11T10:12:03.389Z,95141.34
2022-12-11T10:14:42.170Z,95135.81
2022-12-11T10:17:13.573Z,95134.88
2022-12-11T10:19:41.923Z,95142.31
2022-12-11T10:22:20.514Z,95138.94
2022-12-11T10:25:11.557Z,95151.59
2022-12-11T10:27:51.136Z,95158.66
2022-12-11T10:30:22.479Z,95143.34
2022-12-11T10:33:33.720Z,95169.31
2022-12-11T10:36:00.811Z,95179.72
2022-12-11T10:38:48.220Z,95190.94
2022-12-11T10:41:22.144Z,95194.53
2022-12-11T10:43:51.346Z,95188.28
2022-12-11T10:46:18.010Z,95193.97
2022-12-11T10:48:56.170Z,95206.97
2022-12-11T10:51:26.090Z,95216.78
2022-12-11T10:54:07.331Z,95215.97
2022-12-11T10:56:37.585Z,95216.13
2022-12-11T10:59:04.753Z,95227.72
2022-12-11T11:01:37.286Z,95217.41
2022-12-11T11:04:14.112Z,95227.94
2022-12-11T11:06:41.009Z,95230.84
2022-12-11T11:09:31.915Z,95211.47
2022-12-11T11:12:00.017Z,95215.09
2022-12-11T11:14:29.892Z,95226.03
2022-12-11T11:16:57.894Z,95240.59
2022-12-11T11:19:29.714Z,95229.81
2022-12-11T11:22:05.413Z,95230.75
2022-12-11T11:24:38.826Z,95239.44
2022-12-11T11:27:29.555Z,95245.47
2022-12-11T11:30:04.067Z,95236.47
2022-12-11T11:32:41.037Z,95258.22
2022-12-11T11:35:14.472Z,95253.94
2022-12-11T11:37:55.414Z,95253.16
2022-12-11T11:40:39.888Z,95245.34
2022-12-11T11:43:36.431Z,95260.78
2022-12-11T11:46:20.722Z,95246.84
2022-12-11T11:49:01.684Z,95247.91
2022-12-11T11:51:53.021Z,95236.06
2022-12-11T11:54:48.906Z,95266.09
2022-12-11T11:57:25.163Z,95262.94
2022-12-11T12:00:02.152Z,95252.69
2022-12-11T12:02:38.658Z,95253.66
2022-12-11T12:05:08.362Z,95267.34
2022-12-11T12:07:58.598Z,95286.34
2022-12-11T12:10:32.120Z,95277.78
2022-12-11T12:13:23.937Z,95287.63
2022-12-11T12:15:58.415Z,95295.75
2022-12-11T12:18:34.370Z,95310.03
2022-12-11T12:21:11.091Z,95319.22
2022-12-11T12:24:05.452Z,95322.09
2022-12-11T12:26:44.684Z,95326.50
2022-12-11T12:29:20.721Z,95321.75
2022-12-11T12:32:02.355Z,95326.66
2022-12-11T12:34:47.777Z,95327.94
2022-12-11T12:37:37.839Z,95328.88
2022-12-11T12:40:23.209Z,95328.25
2022-12-11T12:42:52.716Z,95331.88
2022-12-11T12:45:41.843Z,95317.44
2022-12-11T12:51:16.588Z,95313.06
2022-12-11T12:53:49.935Z,95300.69
2022-12-11T12:56:16.974Z,95327.19
2022-12-11T12:58:46.411Z,95331.16
2022-12-11T13:01:12.986Z,95344.16
2022-12-11T13:04:05.805Z,95348.59
2022-12-11T13:06:44.294Z,95353.03
2022-12-11T13:09:26.666Z,95349.72
2022-12-11T13:11:57.761Z,95359.06
2022-12-11T13:14:35.332Z,95359.06
2022-12-11T13:17:26.462Z,95348.75
2022-12-11T13:20:14.352Z,95356.38
2022-12-11T13:23:14.922Z,95358.91
2022-12-11T13:25:51.594Z,95348.91
2022-12-11T13:28:29.769Z,95345.19
2022-12-11T13:31:16.775Z,95351.91
2022-12-11T13:33:50.670Z,95348.38
2022-12-11T13:36:24.555Z,95354.06
2022-12-11T13:38:57.428Z,95371.81
2022-12-11T13:41:25.051Z,95364.00
2022-12-11T13:43:52.772Z,95364.59
2022-12-11T13:46:29.679Z,95379.53
2022-12-11T13:49:05.011Z,95376.09
2022-12-11T13:51:35.355Z,95369.50
2022-12-11T13:54:23.593Z,95385.72
2022-12-11T13:56:54.227Z,95396.59
2022-12-11T13:59:43.155Z,95403.50
2022-12-11T14:02:23.746Z,95411.31
2022-12-11T14:04:56.861Z,95407.75
2022-12-11T14:07:36.564Z,95419.03
2022-12-11T14:10:14.556Z,95407.34
2022-12-11T14:12:59.922Z,95418.88
2022-12-11T14:15:28.202Z,95418.31
2022-12-11T14:17:55.732Z,95427.16
2022-12-11T14:20:31.959Z,95430.84
2022-12-11T14:23:21.264Z,95438.41
2022-12-11T14:26:21.661Z,95446.03
2022-12-11T14:28:48.515Z,95449.31
2022-12-11T14:31:42.814Z,95447.53
2022-12-11T14:34:20.059Z,95453.69
2022-12-11T14:36:48.766Z,95453.69
2022-12-11T14:39:33.862Z,95463.41
2022-12-11T14:42:06.107Z,95471.13
2022-12-11T14:44:48.180Z,95469.22
2022-12-11T14:47:20.861Z,95469.28
2022-12-11T14:50:09.057Z,95475.75
2022-12-11T14:52:42.620Z,95469.09
2022-12-11T14:55:16.266Z,95469.09
2022-12-11T14:57:47.964Z,95470.19
2022-12-11T15:00:25.310Z,95478.00
2022-12-11T15:03:06.257Z,95476.53
2022-12-11T15:05:40.306Z,95474.41
2022-12-11T15:08:10.543Z,95478.78
2022-12-11T15:10:54.651Z,95477.56
2022-12-11T15:13:24.931Z,95489.44
2022-12-11T15:15:53.107Z,95494.59
2022-12-11T15:18:32.884Z,95506.69
2022-12-11T15:21:07.140Z,95511.03
2022-12-11T15:23:57.875Z,95509.72
2022-12-11T15:26:48.209Z,95528.47
2022-12-11T15:29:26.481Z,95528.00
2022-12-11T15:32:09.674Z,95528.56
2022-12-11T15:34:46.232Z,95528.34
2022-12-11T15:37:31.958Z,95538.53
2022-12-11T15:40:01.118Z,95521.31
2022-12-11T15:42:27.753Z,95527.63
2022-12-11T15:44:55.608Z,95538.84
2022-12-11T15:47:26.034Z,95534.56
2022-12-11T15:50:21.482Z,95542.63
2022-12-11T15:52:49.171Z,95537.81
2022-12-11T15:55:16.851Z,95534.91
2022-12-11T15:57:47.930Z,95539.97
2022-12-11T16:00:16.696Z,95542.66
2022-12-11T16:02:43.400Z,95536.28
2022-12-11T16:05:10.546Z,95543.84
2022-12-11T16:07:38.358Z,95543.88
2022-12-11T16:10:06.359Z,95539.13
2022-12-11T16:12:33.259Z,95529.75
2022-12-11T16:15:00.106Z,95533.31
2022-12-11T16:17:26.852Z,95538.06
2022-12-11T16:19:54.219Z,95545.03
2022-12-11T16:22:20.975Z,95534.94
2022-12-11T16:24:47.675Z,95542.72
2022-12-11T16:27:18.586Z,95548.84
2022-12-11T16:29:48.483Z,95550.81
2022-12-11T16:32:15.197Z,95554.00
2022-12-11T16:34:41.841Z,95555.66
2022-12-11T16:37:09.613Z,95554.28
2022-12-11T16:39:38.367Z,95554.78
2022-12-11T16:42:06.194Z,95564.94
2022-12-11T16:44:33.368Z,95566.53
2022-12-11T16:47:00.170Z,95560.59
2022-12-11T16:49:31.086Z,95560.88
2022-12-11T16:51:59.875Z,95564.59
2022-12-11T16:54:26.496Z,95566.53
2022-12-11T16:56:53.065Z,95568.13
2022-12-11T16:59:19.951Z,95580.47
2022-12-11T17:01:46.670Z,95581.06
2022-12-11T17:04:13.360Z,95579.97
2022-12-11T17:06:40.267Z,95579.19
2022-12-11T17:09:07.067Z,95578.44
2022-12-11T17:11:33.826Z,95578.50
2022-12-11T17:14:00.859Z,95573.47
2022-12-11T17:16:30.789Z,95588.53
2022-12-11T17:18:58.238Z,95588.06
2022-12-11T17:21:25.642Z,95593.47
2022-12-11T17:23:52.240Z,95603.41
2022-12-11T17:26:19.162Z,95599.78
2022-12-11T17:28:46.212Z,95598.50
2022-12-11T17:31:19.003Z,95591.34
2022-12-11T17:33:46.732Z,95594.59
2022-12-11T17:36:16.629Z,95590.34
2022-12-11T17:38:43.611Z,95599.75
2022-12-11T17:41:18.491Z,95613.38
2022-12-11T17:43:51.532Z,95625.16
2022-12-11T17:46:19.893Z,95614.47
2022-12-11T17:48:47.842Z,95615.25
2022-12-11T17:51:21.278Z,95617.44
2022-12-11T17:53:50.322Z,95624.13
2022-12-11T17:56:17.629Z,95620.66
2022-12-11T17:58:44.779Z,95636.41
2022-12-11T18:01:13.227Z,95635.91
2022-12-11T18:03:41.042Z,95640.44
2022-12-11T18:06:11.446Z,95634.78
2022-12-11T18:08:38.689Z,95626.84
2022-12-11T18:11:14.158Z,95641.78
2022-12-11T18:13:41.788Z,95641.50
2022-12-11T18:16:17.060Z,95646.28
2022-12-11T18:18:44.234Z,95643.84
2022-12-11T18:21:14.944Z,95651.84
2022-12-11T18:23:41.916Z,95656.13
2022-12-11T18:26:11.146Z,95658.28
2022-12-11T18:28:37.776Z,95660.44
2022-12-11T18:31:04.918Z,95657.50
2022-12-11T18:33:32.288Z,95669.00
2022-12-11T18:35:58.918Z,95671.19
2022-12-11T18:38:25.675Z,95677.56
2022-12-11T18:40:52.385Z,95670.09
2022-12-11T18:43:19.028Z,95675.94
2022-12-11T18:45:45.790Z,95681.28
2022-12-11T18:48:13.251Z,95675.44
2022-12-11T18:50:48.525Z,95669.56
2022-12-11T18:53:15.575Z,95672.78
2022-12-11T18:55:47.159Z,95674.13
2022-12-11T18:58:16.647Z,95674.66
2022-12-11T19:00:44.511Z,95670.69
2022-12-11T19:03:13.689Z,95676.84
2022-12-11T19:05:43.019Z,95678.97
2022-12-11T19:08:12.478Z,95675.53
2022-12-11T19:10:47.065Z,95674.50
2022-12-11T19:13:14.370Z,95671.84
2022-12-11T19:15:42.588Z,95654.31
2022-12-11T19:18:10.269Z,95679.41
2022-12-11T19:21:04.920Z,95688.00
2022-12-11T19:23:27.036Z,95689.09
2022-12-11T19:25:53.902Z,95701.41
2022-12-11T19:28:20.537Z,95710.53
2022-12-11T19:30:49.455Z,95712.97
2022-12-11T19:33:16.600Z,95709.25
2022-12-11T19:35:43.718Z,95733.03
2022-12-11T19:38:10.653Z,95727.16
2022-12-11T19:40:42.579Z,95745.34
2022-12-11T19:43:10.059Z,95751.78
2022-12-11T19:45:37.566Z,95743.78
2022-12-11T19:48:04.497Z,95745.13
2022-12-11T19:50:31.265Z,95751.00
2022-12-11T19:52:58.445Z,95740.34
2022-12-11T19:55:25.131Z,95737.94
2022-12-11T19:57:51.763Z,95740.59
2022-12-11T20:00:23.350Z,95753.41
2022-12-11T20:02:50.105Z,95744.59
2022-12-11T20:05:16.970Z,95718.75
2022-12-11T20:07:46.913Z,95740.59
2022-12-11T20:10:13.629Z,95749.16
2022-12-11T20:12:40.398Z,95737.94
2022-12-11T20:15:07.701Z,95739.00
2022-12-11T20:17:36.777Z,95739.00
2022-12-11T20:20:03.786Z,95751.81
2022-12-11T20:22:30.515Z,95737.13
2022-12-11T20:24:57.238Z,95756.09
2022-12-11T20:27:23.905Z,95755.03
2022-12-11T20:29:50.741Z,95757.69
2022-12-11T20:32:17.522Z,95755.56
2022-12-11T20:34:44.281Z,95749.97
2022-12-11T20:37:11.781Z,95753.69
2022-12-11T20:39:38.366Z,95766.75
2022-12-11T20:42:05.142Z,95756.88
2022-12-11T20:44:32.356Z,95761.16
2022-12-11T20:46:59.140Z,95758.22
2022-12-11T20:49:26.018Z,95766.22
2022-12-11T20:51:52.972Z,95764.63
2022-12-11T20:54:19.664Z,95768.91
2022-12-11T20:56:46.648Z,95763.03
2022-12-11T20:59:13.734Z,95764.34
2022-12-11T21:01:40.832Z,95763.03
2022-12-11T21:04:07.847Z,95766.75
2022-12-11T21:06:37.218Z,95771.28
2022-12-11T21:09:07.329Z,95777.19
2022-12-11T21:11:34.712Z,95781.97
2022-12-11T21:14:01.615Z,95779.59
2022-12-11T21:16:28.641Z,95778.22
2022-12-11T21:18:57.450Z,95785.16
2022-12-11T21:21:24.977Z,95771.56
2022-12-11T21:23:51.685Z,95789.69
2022-12-11T21:26:18.883Z,95782.25
2022-12-11T21:28:45.802Z,95762.47
2022-12-11T21:31:16.290Z,95770.75
2022-12-11T21:33:43.076Z,95778.75
2022-12-11T21:36:12.979Z,95786.47
2022-12-11T21:38:40.967Z,95772.59
2022-12-11T21:41:10.596Z,95785.97
2022-12-11T21:43:43.370Z,95784.38
2022-12-11T21:46:27.593Z,95775.28
2022-12-11T21:48:54.654Z,95777.97
2022-12-11T21:51:37.165Z,95779.31
2022-12-11T21:54:10.514Z,95781.19
2022-12-11T21:56:37.090Z,95764.91
2022-12-11T21:59:03.946Z,95773.97
2022-12-11T22:01:34.404Z,95771.84
2022-12-11T22:04:02.063Z,95775.84
2022-12-11T22:06:28.742Z,95773.44
2022-12-11T22:08:56.150Z,95775.84
2022-12-11T22:11:26.823Z,95778.50
2022-12-11T22:13:54.418Z,95777.44
2022-12-11T22:16:21.236Z,95784.09
2022-12-11T22:18:48.063Z,95776.66
2022-12-11T22:21:15.767Z,95782.78
2022-12-11T22:23:43.408Z,95783.84
2022-12-11T22:26:15.869Z,95776.91
2022-12-11T22:28:42.630Z,95788.09
2022-12-11T22:31:14.490Z,95779.03
2022-12-11T22:33:41.442Z,95784.38
2022-12-11T22:36:08.570Z,95784.38
2022-12-11T22:38:35.618Z,95783.84
2022-12-11T22:41:09.609Z,95792.38
2022-12-11T22:43:36.583Z,95791.31
2022-12-11T22:46:03.295Z,95784.41
2022-12-11T22:48:29.925Z,95791.84
2022-12-11T22:50:57.598Z,95788.66
2022-12-11T22:53:24.306Z,95790.25
2022-12-11T22:55:50.916Z,95783.31
2022-12-11T22:58:21.772Z,95781.72
2022-12-11T23:00:49.216Z,95791.88
2022-12-11T23:03:16.615Z,95788.13
2022-12-11T23:05:43.636Z,95800.91
2022-12-11T23:08:10.374Z,95797.47
2022-12-11T23:10:40.567Z,95791.56
2022-12-11T23:13:08.358Z,95796.91
2022-12-11T23:15:35.011Z,95808.38
2022-12-11T23:18:01.706Z,95807.03
2022-12-11T23:20:28.703Z,95814.25
2022-12-11T23:22:55.562Z,95831.31
2022-12-11T23:25:22.367Z,95828.66
2022-12-11T23:27:49.149Z,95838.78
2022-12-11T23:30:16.010Z,95844.91
2022-12-11T23:32:42.622Z,95833.16
2022-12-11T23:35:10.158Z,95834.25
2022-12-11T23:37:37.207Z,95836.13
2022-12-11T23:40:04.388Z,95828.09
2022-12-11T23:42:31.294Z,95830.22
2022-12-11T23:44:57.889Z,95844.63
2022-12-11T23:47:24.986Z,95856.63
2022-12-11T23:49:51.964Z,95867.03
2022-12-11T23:52:18.806Z,95865.44
2022-12-11T23:54:45.436Z,95864.34
2022-12-11T23:57:12.260Z,95875.28
2022-12-11T23:59:38.931Z,95884.91
